CYNR

METAR CYNR 221700Z AUTO 23012KT 9SM CLR 28/04 A2982 RMK AO2 SLP090
METAR
LOCATION
CYNR
DATE - TIME
221700Z
WIND
230 TRUE @ 12 KNOTS
VISIBILITY
9SM
RUNWAY VISUAL RANGE
NOT REPORTED
WEATHER
CLOUDINESS
CLR
TEMP / DEWPOINT
28 ºC / 4 ºC
ALTIMETER
29.82 in. Hg
RECENT WEATHER
NOT REPORTED
WIND SHEAR
NOT REPORTED
REMARKS
RMK AO2 SLP090
SEA LEVEL PRESSURE: hPa

CYNR

METAR CYNR 221600Z AUTO 16006KT 9SM CLR 25/07 A2983 RMK AO2 SLP095
METAR
LOCATION
CYNR
DATE - TIME
221600Z
WIND
160 TRUE @ 6 KNOTS
VISIBILITY
9SM
RUNWAY VISUAL RANGE
NOT REPORTED
WEATHER
CLOUDINESS
CLR
TEMP / DEWPOINT
25 ºC / 7 ºC
ALTIMETER
29.83 in. Hg
RECENT WEATHER
NOT REPORTED
WIND SHEAR
NOT REPORTED
REMARKS
RMK AO2 SLP095
SEA LEVEL PRESSURE: hPa

CYNR

METAR CYNR 221500Z AUTO 15005KT 9SM CLR 20/08 A2984 RMK AO2 SLP096
METAR
LOCATION
CYNR
DATE - TIME
221500Z
WIND
150 TRUE @ 5 KNOTS
VISIBILITY
9SM
RUNWAY VISUAL RANGE
NOT REPORTED
WEATHER
CLOUDINESS
CLR
TEMP / DEWPOINT
20 ºC / 8 ºC
ALTIMETER
29.84 in. Hg
RECENT WEATHER
NOT REPORTED
WIND SHEAR
NOT REPORTED
REMARKS
RMK AO2 SLP096
SEA LEVEL PRESSURE: hPa

Your time UTC time
 
 
Weather data provided by AXYS Technologies Inc., www.axystechnologies.com
 
Station History